Time;durP1;ratioP1;P1;durP2;ratioP2;P2;SDS_P1;SDS_P2;PMS_P1;PMS_P2;Temp;Humidity;BMP_temperature;BMP_pressure;BME280_temperature;BME280_humidity;BME280_pressure;Samples;Min_cycle;Max_cycle;Signal;HPM_P1;HPM_P2
2022/11/04 00:01:47;;;;;;;8.78;4.60;;;;;;;;;;1797809;79;21017;-70
2022/11/04 00:04:14;;;;;;;9.53;4.35;;;;;;;;;;1817027;78;21060;-69
2022/11/04 00:06:40;;;;;;;7.15;4.47;;;;;;;;;;1817312;79;21093;-70
2022/11/04 00:09:08;;;;;;;10.32;5.50;;;;;;;;;;1795100;79;21080;-70
2022/11/04 00:14:19;;;;;;;7.97;5.00;;;;;;;;;;1804130;79;20993;-71
2022/11/04 00:28:41;;;;;;;6.62;4.45;;;;;;;;;;1789965;78;21120;-70
2022/11/04 00:29:58;;;;;;;7.95;3.67;;;;;;;;;;1748392;81;21105;-70
2022/11/04 00:35:10;;;;;;;9.68;4.53;;;;;;;;;;1745985;81;21056;-70
2022/11/04 00:37:37;;;;;;;10.30;4.80;;;;;;;;;;1722709;83;21068;-70
2022/11/04 00:40:05;;;;;;;8.00;4.80;;;;;;;;;;1706857;83;21068;-70
2022/11/04 00:42:31;;;;;;;7.95;4.22;;;;;;;;;;1743266;81;21576;-70
2022/11/04 00:44:57;;;;;;;6.35;4.40;;;;;;;;;;1759331;80;21065;-70
2022/11/04 00:47:24;;;;;;;7.25;4.37;;;;;;;;;;1757768;80;21123;-71
2022/11/04 00:49:52;;;;;;;9.50;4.60;;;;;;;;;;1754939;80;21474;-71
2022/11/04 00:52:18;;;;;;;8.23;4.62;;;;;;;;;;1770243;80;21060;-69
2022/11/04 00:54:44;;;;;;;8.63;4.33;;;;;;;;;;1765917;81;21000;-70
2022/11/04 00:57:10;;;;;;;7.50;4.87;;;;;;;;;;1781226;80;21084;-70
2022/11/04 00:59:38;;;;;;;6.55;4.35;;;;;;;;;;1759867;80;21058;-70
2022/11/04 01:02:06;;;;;;;8.60;4.58;;;;;;;;;;1756766;80;21043;-69
2022/11/04 01:04:32;;;;;;;8.58;4.80;;;;;;;;;;1728358;82;21058;-71
2022/11/04 01:06:59;;;;;;;12.63;4.72;;;;;;;;;;1733315;82;21048;-71
2022/11/04 01:09:25;;;;;;;8.10;4.60;;;;;;;;;;1741732;81;21151;-71
2022/11/04 01:11:52;;;;;;;6.22;4.40;;;;;;;;;;1749545;81;21130;-71
2022/11/04 01:14:19;;;;;;;10.98;4.37;;;;;;;;;;1764763;81;21084;-71
2022/11/04 01:16:45;;;;;;;9.58;4.30;;;;;;;;;;1760509;81;21067;-71
2022/11/04 01:19:11;;;;;;;7.80;4.33;;;;;;;;;;1729834;82;21053;-71
2022/11/04 01:21:38;;;;;;;9.15;4.50;;;;;;;;;;1757019;80;21115;-70
2022/11/04 01:24:05;;;;;;;5.05;3.70;;;;;;;;;;1762882;81;21048;-70
2022/11/04 01:26:32;;;;;;;9.65;4.70;;;;;;;;;;1768426;81;21108;-71
2022/11/04 01:28:59;;;;;;;8.03;5.12;;;;;;;;;;1766316;81;21083;-71
2022/11/04 01:31:27;;;;;;;8.88;4.50;;;;;;;;;;1740400;81;21044;-71
2022/11/04 01:33:53;;;;;;;8.70;4.70;;;;;;;;;;1746215;82;21038;-71
2022/11/04 01:36:19;;;;;;;9.55;4.75;;;;;;;;;;1747627;81;21008;-71
2022/11/04 01:38:46;;;;;;;8.73;4.53;;;;;;;;;;1731478;82;21046;-71
2022/11/04 01:41:17;;;;;;;5.95;4.37;;;;;;;;;;1738472;81;21036;-71
2022/11/04 01:43:55;;;;;;;8.50;4.50;;;;;;;;;;1736815;83;21052;-71
2022/11/04 01:46:38;;;;;;;6.03;3.72;;;;;;;;;;1749129;81;21087;-70
2022/11/04 01:49:11;;;;;;;5.62;3.67;;;;;;;;;;1755225;81;21635;-70
2022/11/04 01:51:38;;;;;;;6.75;4.12;;;;;;;;;;1746208;81;22070;-71
2022/11/04 01:54:05;;;;;;;6.60;4.08;;;;;;;;;;1748013;82;21075;-71
2022/11/04 01:56:33;;;;;;;9.00;4.08;;;;;;;;;;1734262;83;21375;-71
2022/11/04 01:59:01;;;;;;;7.20;4.12;;;;;;;;;;1734261;82;21060;-72
2022/11/04 02:04:26;;;;;;;7.97;4.58;;;;;;;;;;1735283;77;77001;-67
2022/11/04 02:06:54;;;;;;;8.95;4.50;;;;;;;;;;1726031;82;21078;-67
2022/11/04 02:09:21;;;;;;;6.53;4.15;;;;;;;;;;1727024;82;21080;-67
2022/11/04 02:14:32;;;;;;;6.60;4.20;;;;;;;;;;1701668;82;21587;-67
2022/11/04 02:17:00;;;;;;;8.10;3.65;;;;;;;;;;1693070;84;21075;-67
2022/11/04 02:19:32;;;;;;;6.53;3.92;;;;;;;;;;1693836;83;21046;-66
2022/11/04 02:22:04;;;;;;;9.20;4.20;;;;;;;;;;1692985;84;21107;-68
2022/11/04 02:24:35;;;;;;;7.12;3.87;;;;;;;;;;1692544;83;21122;-68
2022/11/04 02:27:03;;;;;;;8.95;4.17;;;;;;;;;;1693595;84;21072;-67
2022/11/04 02:29:37;;;;;;;9.68;4.22;;;;;;;;;;1691822;83;21156;-67
2022/11/04 02:32:17;;;;;;;6.60;3.80;;;;;;;;;;1686500;85;21060;-66
2022/11/04 02:35:04;;;;;;;5.78;4.08;;;;;;;;;;1687920;83;21048;-66
2022/11/04 02:37:32;;;;;;;6.75;3.90;;;;;;;;;;1698885;83;21044;-67
2022/11/04 02:40:12;;;;;;;6.05;3.75;;;;;;;;;;1694172;83;21052;-68
2022/11/04 02:42:40;;;;;;;7.33;3.95;;;;;;;;;;1686018;85;21049;-66
2022/11/04 02:45:08;;;;;;;5.83;4.00;;;;;;;;;;1696980;83;21079;-66
2022/11/04 02:47:37;;;;;;;8.20;3.80;;;;;;;;;;1716153;83;21136;-66
2022/11/04 02:50:07;;;;;;;6.35;3.70;;;;;;;;;;1705001;82;21048;-66
2022/11/04 02:52:38;;;;;;;6.15;3.85;;;;;;;;;;1716475;82;21076;-66
2022/11/04 02:55:09;;;;;;;7.17;3.75;;;;;;;;;;1707308;83;21073;-67
2022/11/04 02:57:35;;;;;;;5.22;3.58;;;;;;;;;;1714061;83;21068;-67
2022/11/04 03:00:03;;;;;;;12.95;4.12;;;;;;;;;;1708482;82;21115;-66
2022/11/04 03:02:34;;;;;;;9.13;3.77;;;;;;;;;;1685644;83;21084;-66
2022/11/04 03:05:01;;;;;;;7.80;3.65;;;;;;;;;;1694416;83;21040;-66
2022/11/04 03:07:30;;;;;;;9.08;3.98;;;;;;;;;;1716146;82;22344;-67
2022/11/04 03:09:58;;;;;;;8.78;4.12;;;;;;;;;;1692426;83;21052;-67
2022/11/04 03:12:25;;;;;;;8.23;4.58;;;;;;;;;;1717997;83;21075;-68
2022/11/04 03:14:54;;;;;;;5.67;3.70;;;;;;;;;;1715657;83;21103;-67
2022/11/04 03:17:31;;;;;;;6.80;4.37;;;;;;;;;;1714199;83;21076;-66
2022/11/04 03:19:58;;;;;;;6.58;3.90;;;;;;;;;;1684128;84;21091;-67
2022/11/04 03:22:30;;;;;;;13.62;4.80;;;;;;;;;;1689679;83;21070;-67
2022/11/04 03:24:56;;;;;;;11.65;5.33;;;;;;;;;;1678115;83;21056;-68
2022/11/04 03:27:41;;;;;;;9.15;4.70;;;;;;;;;;1701227;83;21088;-68
2022/11/04 03:30:15;;;;;;;7.22;3.98;;;;;;;;;;1657409;83;21100;-66
2022/11/04 03:32:44;;;;;;;6.72;4.22;;;;;;;;;;1663349;84;21088;-66
2022/11/04 03:35:10;;;;;;;6.70;3.83;;;;;;;;;;1684344;83;21120;-66
2022/11/04 03:37:36;;;;;;;7.45;4.05;;;;;;;;;;1668250;83;21057;-67
2022/11/04 03:40:03;;;;;;;6.72;4.33;;;;;;;;;;1691797;82;21607;-68
2022/11/04 03:42:30;;;;;;;8.65;3.90;;;;;;;;;;1689367;83;21025;-67
2022/11/04 03:44:56;;;;;;;8.28;4.12;;;;;;;;;;1687371;83;21117;-67
2022/11/04 03:47:23;;;;;;;8.93;4.12;;;;;;;;;;1683364;83;21046;-67
2022/11/04 03:49:50;;;;;;;6.95;3.70;;;;;;;;;;1656105;85;21057;-66
2022/11/04 03:52:16;;;;;;;7.28;3.92;;;;;;;;;;1676347;85;21042;-66
2022/11/04 03:54:43;;;;;;;5.87;3.67;;;;;;;;;;1660181;85;21047;-67
2022/11/04 03:57:28;;;;;;;7.42;4.20;;;;;;;;;;1668889;85;21552;-67
2022/11/04 04:00:09;;;;;;;8.60;4.37;;;;;;;;;;1662617;84;21132;-67
2022/11/04 04:02:56;;;;;;;7.35;3.60;;;;;;;;;;1664324;84;21081;-67
2022/11/04 04:05:24;;;;;;;7.87;4.22;;;;;;;;;;1684192;84;21093;-67
2022/11/04 04:07:53;;;;;;;5.95;4.20;;;;;;;;;;1663139;84;21733;-66
2022/11/04 04:10:40;;;;;;;5.70;3.50;;;;;;;;;;1637503;85;21125;-67
2022/11/04 04:13:20;;;;;;;5.83;3.60;;;;;;;;;;1691166;84;21084;-67
2022/11/04 04:15:53;;;;;;;7.33;4.28;;;;;;;;;;1716165;83;21030;-67
2022/11/04 04:18:22;;;;;;;8.48;4.00;;;;;;;;;;1711734;82;21064;-67
2022/11/04 04:20:48;;;;;;;7.60;3.72;;;;;;;;;;1689593;83;21148;-68
2022/11/04 04:28:46;;;;;;;8.65;3.77;;;;;;;;;;1702884;83;21084;-67
2022/11/04 04:31:48;;;;;;;5.70;3.55;;;;;;;;;;1696106;83;21052;-67
2022/11/04 04:33:43;;;;;;;8.15;3.85;;;;;;;;;;1684117;83;21088;-67
2022/11/04 04:36:09;;;;;;;7.08;3.52;;;;;;;;;;1695438;83;21037;-68
2022/11/04 04:46:47;;;;;;;7.00;3.98;;;;;;;;;;1692700;82;21151;-67
2022/11/04 04:49:14;;;;;;;8.10;4.03;;;;;;;;;;1724535;82;21088;-67
2022/11/04 04:51:44;;;;;;;7.30;3.70;;;;;;;;;;1702327;82;21032;-66
2022/11/04 04:54:12;;;;;;;7.58;3.80;;;;;;;;;;1691256;83;21111;-67
2022/11/04 04:56:38;;;;;;;6.47;4.03;;;;;;;;;;1704497;83;21068;-66
2022/11/04 04:59:05;;;;;;;8.90;4.00;;;;;;;;;;1689079;83;21072;-67
2022/11/04 05:01:32;;;;;;;6.55;4.00;;;;;;;;;;1686199;83;21139;-67
2022/11/04 05:03:58;;;;;;;6.78;4.28;;;;;;;;;;1699764;83;21155;-66
2022/11/04 05:06:25;;;;;;;5.10;3.55;;;;;;;;;;1708624;83;20990;-67
2022/11/04 05:08:52;;;;;;;7.85;4.12;;;;;;;;;;1703915;83;21084;-66
2022/11/04 05:11:18;;;;;;;7.53;4.50;;;;;;;;;;1699964;83;21092;-66
2022/11/04 05:13:45;;;;;;;9.28;4.60;;;;;;;;;;1714390;83;21084;-67
2022/11/04 05:16:12;;;;;;;8.10;4.85;;;;;;;;;;1695772;83;21052;-66
2022/11/04 05:18:38;;;;;;;7.78;4.40;;;;;;;;;;1692256;83;21076;-66
2022/11/04 05:21:05;;;;;;;10.20;4.58;;;;;;;;;;1702711;81;22326;-67
2022/11/04 05:23:31;;;;;;;8.93;4.72;;;;;;;;;;1707229;83;21080;-67
2022/11/04 05:25:58;;;;;;;8.88;5.35;;;;;;;;;;1693989;83;21088;-66
2022/11/04 05:28:26;;;;;;;8.85;4.62;;;;;;;;;;1687544;83;21068;-67
2022/11/04 05:30:52;;;;;;;10.35;4.53;;;;;;;;;;1688398;83;21139;-68
2022/11/04 05:33:18;;;;;;;7.90;4.55;;;;;;;;;;1703411;82;21084;-68
2022/11/04 05:35:46;;;;;;;8.90;4.33;;;;;;;;;;1702089;81;21907;-67
2022/11/04 05:38:12;;;;;;;5.95;4.20;;;;;;;;;;1693950;83;21057;-67
2022/11/04 05:40:39;;;;;;;7.75;4.33;;;;;;;;;;1709355;83;21709;-67
2022/11/04 05:43:06;;;;;;;10.38;4.67;;;;;;;;;;1700407;82;21009;-67
2022/11/04 05:45:34;;;;;;;8.45;4.40;;;;;;;;;;1713513;83;21567;-66
2022/11/04 05:48:00;;;;;;;9.90;4.55;;;;;;;;;;1692959;83;21065;-66
2022/11/04 05:50:27;;;;;;;7.80;4.47;;;;;;;;;;1715704;81;21050;-66
2022/11/04 05:52:55;;;;;;;7.22;4.10;;;;;;;;;;1695893;82;21091;-66
2022/11/04 05:55:21;;;;;;;9.78;4.83;;;;;;;;;;1704451;83;21121;-67
2022/11/04 05:57:48;;;;;;;7.03;4.22;;;;;;;;;;1686696;83;21060;-66
2022/11/04 06:00:15;;;;;;;6.62;4.58;;;;;;;;;;1706750;83;21052;-65
2022/11/04 06:02:41;;;;;;;5.37;3.98;;;;;;;;;;1714746;82;22202;-66
2022/11/04 06:05:08;;;;;;;8.90;4.67;;;;;;;;;;1709753;83;21163;-66
2022/11/04 06:07:34;;;;;;;7.00;4.22;;;;;;;;;;1713210;83;21033;-66
2022/11/04 06:10:01;;;;;;;7.30;4.40;;;;;;;;;;1715878;83;21005;-68
2022/11/04 06:12:27;;;;;;;9.18;4.85;;;;;;;;;;1710545;83;21091;-66
2022/11/04 06:14:55;;;;;;;8.13;4.58;;;;;;;;;;1696367;83;21065;-66
2022/11/04 06:17:21;;;;;;;7.87;4.80;;;;;;;;;;1712680;83;21465;-66
2022/11/04 06:19:48;;;;;;;9.70;4.47;;;;;;;;;;1709342;83;21037;-66
2022/11/04 06:22:15;;;;;;;9.93;6.30;;;;;;;;;;1701332;82;21405;-68
2022/11/04 06:24:46;;;;;;;17.30;11.03;;;;;;;;;;1701557;82;21024;-67
2022/11/04 06:27:11;;;;;;;9.98;5.92;;;;;;;;;;1706467;82;21020;-66
2022/11/04 06:29:41;;;;;;;11.10;5.50;;;;;;;;;;1708639;82;21052;-67
2022/11/04 06:32:08;;;;;;;8.90;4.60;;;;;;;;;;1691006;83;21556;-67
2022/11/04 06:34:34;;;;;;;7.95;4.87;;;;;;;;;;1707447;81;21092;-65
2022/11/04 06:37:01;;;;;;;10.32;5.37;;;;;;;;;;1702746;82;21061;-65
2022/11/04 06:39:27;;;;;;;10.65;5.30;;;;;;;;;;1708443;81;21030;-65
2022/11/04 06:41:53;;;;;;;8.40;4.80;;;;;;;;;;1695236;81;21080;-65
2022/11/04 06:44:19;;;;;;;15.00;5.12;;;;;;;;;;1705344;83;21096;-65
2022/11/04 06:46:47;;;;;;;9.08;5.65;;;;;;;;;;1702190;83;21042;-65
2022/11/04 07:02:56;;;;;;;7.92;5.85;;;;;;;;;;1813051;77;28113;-68
2022/11/04 07:05:22;;;;;;;8.43;5.87;;;;;;;;;;1748986;81;21068;-65
2022/11/04 07:07:48;;;;;;;10.53;6.15;;;;;;;;;;1727272;83;21018;-66
2022/11/04 07:10:15;;;;;;;10.85;6.42;;;;;;;;;;1722912;83;21073;-66
2022/11/04 07:12:42;;;;;;;7.97;5.87;;;;;;;;;;1756311;81;21036;-66
2022/11/04 07:15:09;;;;;;;11.15;6.78;;;;;;;;;;1730894;81;21062;-66
2022/11/04 07:17:35;;;;;;;12.18;7.92;;;;;;;;;;1723064;83;21572;-66
2022/11/04 07:20:04;;;;;;;13.32;7.15;;;;;;;;;;1761395;81;21076;-67
2022/11/04 07:22:30;;;;;;;10.70;5.62;;;;;;;;;;1730937;81;20992;-66
2022/11/04 07:24:56;;;;;;;10.13;5.28;;;;;;;;;;1731164;81;21052;-67
2022/11/04 07:27:23;;;;;;;8.18;5.08;;;;;;;;;;1732501;81;21060;-67
2022/11/04 07:29:49;;;;;;;8.30;4.75;;;;;;;;;;1736692;81;21064;-67
2022/11/04 07:32:15;;;;;;;8.55;4.95;;;;;;;;;;1735664;82;21023;-68
2022/11/04 07:34:42;;;;;;;8.20;4.97;;;;;;;;;;1734231;82;21208;-68
2022/11/04 07:37:08;;;;;;;8.20;4.55;;;;;;;;;;1729571;82;21472;-68
2022/11/04 07:39:35;;;;;;;11.12;6.22;;;;;;;;;;1725955;81;21079;-66
2022/11/04 07:42:01;;;;;;;8.80;5.30;;;;;;;;;;1679888;84;21077;-67
2022/11/04 07:44:27;;;;;;;8.25;4.80;;;;;;;;;;1756564;82;20980;-67
2022/11/04 07:46:53;;;;;;;7.47;4.28;;;;;;;;;;1754119;82;20998;-67
2022/11/04 07:49:19;;;;;;;9.23;5.08;;;;;;;;;;1740867;82;21546;-67
2022/11/04 07:51:47;;;;;;;7.42;4.92;;;;;;;;;;1739838;82;21325;-66
2022/11/04 07:54:13;;;;;;;9.95;5.70;;;;;;;;;;1727796;82;20996;-67
2022/11/04 07:56:40;;;;;;;12.28;6.97;;;;;;;;;;1731799;81;21044;-67
2022/11/04 07:59:06;;;;;;;11.05;6.28;;;;;;;;;;1700427;83;21018;-66
2022/11/04 08:01:32;;;;;;;6.83;4.90;;;;;;;;;;1744484;81;21007;-66
2022/11/04 08:03:59;;;;;;;8.48;5.50;;;;;;;;;;1707419;83;21029;-66
2022/11/04 08:06:26;;;;;;;9.45;5.42;;;;;;;;;;1712504;82;21031;-65
2022/11/04 08:08:55;;;;;;;7.65;4.95;;;;;;;;;;1684372;84;21072;-65
2022/11/04 08:11:23;;;;;;;8.80;5.40;;;;;;;;;;1712962;82;21872;-66
2022/11/04 08:13:49;;;;;;;9.95;6.35;;;;;;;;;;1729815;82;21042;-66
2022/11/04 08:16:18;;;;;;;12.45;5.85;;;;;;;;;;1723312;82;21389;-66
2022/11/04 08:18:48;;;;;;;12.53;8.33;;;;;;;;;;1697544;84;21049;-68
2022/11/04 08:21:22;;;;;;;12.68;7.42;;;;;;;;;;1694429;84;21563;-69
2022/11/04 08:23:47;;;;;;;10.30;5.97;;;;;;;;;;1698259;83;21028;-69
2022/11/04 08:26:17;;;;;;;9.85;5.75;;;;;;;;;;1717373;82;20963;-69
2022/11/04 08:28:42;;;;;;;8.08;5.35;;;;;;;;;;1728813;82;21017;-69
2022/11/04 08:31:20;;;;;;;9.13;5.30;;;;;;;;;;1720292;81;21031;-67
2022/11/04 08:33:46;;;;;;;7.83;5.28;;;;;;;;;;1726161;82;20997;-69
2022/11/04 08:36:16;;;;;;;7.78;5.12;;;;;;;;;;1718651;83;21058;-67
2022/11/04 08:38:44;;;;;;;9.25;5.90;;;;;;;;;;1734544;82;21017;-67
2022/11/04 08:41:10;;;;;;;9.48;5.45;;;;;;;;;;1728840;81;21016;-66
2022/11/04 08:43:37;;;;;;;9.00;5.53;;;;;;;;;;1732517;81;21068;-66
2022/11/04 08:46:03;;;;;;;10.05;5.80;;;;;;;;;;1731801;81;21015;-68
2022/11/04 08:48:30;;;;;;;7.60;5.37;;;;;;;;;;1727164;81;21570;-68
2022/11/04 08:50:57;;;;;;;10.43;5.90;;;;;;;;;;1719385;82;21075;-67
2022/11/04 08:53:23;;;;;;;7.78;5.80;;;;;;;;;;1721105;81;21700;-66
2022/11/04 08:55:49;;;;;;;9.03;5.12;;;;;;;;;;1730991;82;21507;-66
2022/11/04 08:58:16;;;;;;;7.83;4.80;;;;;;;;;;1728184;82;21156;-67
2022/11/04 09:00:42;;;;;;;9.70;6.12;;;;;;;;;;1730324;82;21076;-65
2022/11/04 09:03:12;;;;;;;10.82;6.03;;;;;;;;;;1719206;82;21603;-66
2022/11/04 09:05:47;;;;;;;9.43;5.42;;;;;;;;;;1697381;83;21045;-66
2022/11/04 09:08:15;;;;;;;10.35;5.37;;;;;;;;;;1719639;83;21053;-67
2022/11/04 09:10:45;;;;;;;8.65;5.20;;;;;;;;;;1717526;83;21099;-65
2022/11/04 09:13:11;;;;;;;11.95;6.17;;;;;;;;;;1717971;83;21033;-67
2022/11/04 09:15:37;;;;;;;8.08;5.50;;;;;;;;;;1721374;83;21041;-67
2022/11/04 09:18:04;;;;;;;11.48;7.10;;;;;;;;;;1719014;83;21072;-67
2022/11/04 09:20:33;;;;;;;14.85;9.40;;;;;;;;;;1687138;83;21086;-67
2022/11/04 09:23:00;;;;;;;11.00;6.37;;;;;;;;;;1720612;82;21025;-68
2022/11/04 09:25:26;;;;;;;6.95;4.67;;;;;;;;;;1723136;82;21064;-67
2022/11/04 09:27:52;;;;;;;8.53;4.65;;;;;;;;;;1720276;82;21133;-67
2022/11/04 09:30:18;;;;;;;8.60;4.78;;;;;;;;;;1714278;83;21519;-68
2022/11/04 09:32:44;;;;;;;7.83;5.33;;;;;;;;;;1725948;83;21050;-66
2022/11/04 09:35:10;;;;;;;7.12;4.55;;;;;;;;;;1729377;82;20962;-66
2022/11/04 09:37:36;;;;;;;7.47;5.20;;;;;;;;;;1732432;81;20992;-66
2022/11/04 09:40:03;;;;;;;6.25;4.20;;;;;;;;;;1690855;84;21028;-67
2022/11/04 09:42:47;;;;;;;7.20;4.83;;;;;;;;;;1724270;83;21016;-68
2022/11/04 09:45:17;;;;;;;6.25;4.35;;;;;;;;;;1716754;82;21070;-68
2022/11/04 09:47:44;;;;;;;9.03;5.22;;;;;;;;;;1706939;83;21033;-68
2022/11/04 09:50:11;;;;;;;6.97;4.58;;;;;;;;;;1691220;84;21036;-68
2022/11/04 09:52:40;;;;;;;7.60;4.97;;;;;;;;;;1702560;83;21554;-67
2022/11/04 09:55:17;;;;;;;6.25;4.83;;;;;;;;;;1699943;83;21055;-69
2022/11/04 09:57:44;;;;;;;7.30;4.72;;;;;;;;;;1674148;84;21064;-65
2022/11/04 10:00:12;;;;;;;6.70;4.65;;;;;;;;;;1697981;83;21026;-67
2022/11/04 10:02:46;;;;;;;6.62;4.80;;;;;;;;;;1693657;83;21032;-67
2022/11/04 10:05:12;;;;;;;;;;;;;;;;;;1706315;83;21018;-67
2022/11/04 10:07:40;;;;;;;7.80;4.95;;;;;;;;;;1705635;84;20138;-68
2022/11/04 10:10:08;;;;;;;7.37;4.47;;;;;;;;;;1704931;84;21666;-69
2022/11/04 10:12:36;;;;;;;7.30;5.10;;;;;;;;;;1706019;84;21088;-68
2022/11/04 10:15:21;;;;;;;10.13;5.50;;;;;;;;;;1705569;84;21088;-69
2022/11/04 10:36:01;;;;;;;9.75;5.80;;;;;;;;;;1747069;81;28170;-68
2022/11/04 10:38:30;;;;;;;9.60;5.92;;;;;;;;;;1722680;83;22441;-68
2022/11/04 10:40:56;;;;;;;9.05;5.78;;;;;;;;;;1719995;82;21043;-69
2022/11/04 10:43:33;;;;;;;7.95;5.53;;;;;;;;;;1724996;83;21542;-68
2022/11/04 10:46:04;;;;;;;8.70;6.12;;;;;;;;;;1725920;83;21032;-70
2022/11/04 10:48:33;;;;;;;10.08;5.97;;;;;;;;;;1724324;81;20996;-67
2022/11/04 10:50:59;;;;;;;9.58;6.12;;;;;;;;;;1727258;83;21060;-67
2022/11/04 10:53:27;;;;;;;10.18;6.30;;;;;;;;;;1726487;83;21495;-68
2022/11/04 10:55:55;;;;;;;8.23;5.62;;;;;;;;;;1727238;83;21032;-68
2022/11/04 10:58:26;;;;;;;8.93;6.92;;;;;;;;;;1723348;83;21037;-68
2022/11/04 11:00:53;;;;;;;10.55;7.30;;;;;;;;;;1721717;82;21023;-68
2022/11/04 11:03:24;;;;;;;14.53;9.48;;;;;;;;;;1724263;83;21567;-67
2022/11/04 11:05:51;;;;;;;11.80;7.08;;;;;;;;;;1722311;83;21555;-67
2022/11/04 11:08:27;;;;;;;10.45;6.45;;;;;;;;;;1719751;83;21064;-67
2022/11/04 11:10:55;;;;;;;9.50;5.87;;;;;;;;;;1718521;82;21088;-68
2022/11/04 11:13:26;;;;;;;8.95;6.15;;;;;;;;;;1715547;83;21020;-67
2022/11/04 11:16:11;;;;;;;7.62;4.95;;;;;;;;;;1725717;81;20968;-67
2022/11/04 11:18:40;;;;;;;7.55;4.75;;;;;;;;;;1687597;84;21120;-67
2022/11/04 11:21:08;;;;;;;6.92;4.87;;;;;;;;;;1680194;83;21060;-68
2022/11/04 11:23:46;;;;;;;7.78;5.00;;;;;;;;;;1680379;85;22051;-68
2022/11/04 11:26:13;;;;;;;7.47;4.65;;;;;;;;;;1687253;84;21127;-69
2022/11/04 11:28:39;;;;;;;9.00;5.50;;;;;;;;;;1694491;84;21108;-68
2022/11/04 11:31:13;;;;;;;8.90;5.72;;;;;;;;;;1685440;83;21085;-69
2022/11/04 11:33:39;;;;;;;8.00;5.53;;;;;;;;;;1651066;85;21160;-68
2022/11/04 11:36:13;;;;;;;7.70;5.85;;;;;;;;;;1679959;84;21104;-68
2022/11/04 11:38:39;;;;;;;;;;;;;;;;;;1665413;85;21576;-69
2022/11/04 11:41:06;;;;;;;8.10;4.85;;;;;;;;;;1660298;85;20157;-69
2022/11/04 11:43:33;;;;;;;8.88;5.80;;;;;;;;;;1664165;85;21060;-69
2022/11/04 11:45:59;;;;;;;7.12;5.30;;;;;;;;;;1660818;85;21080;-69
2022/11/04 11:48:30;;;;;;;7.70;5.65;;;;;;;;;;1692524;84;21120;-69
2022/11/04 11:51:01;;;;;;;7.30;5.08;;;;;;;;;;1678521;84;22193;-68
2022/11/04 11:53:28;;;;;;;7.78;4.92;;;;;;;;;;1679987;84;21092;-68
2022/11/04 11:56:08;;;;;;;8.25;4.78;;;;;;;;;;1693964;84;21103;-68
2022/11/04 11:58:43;;;;;;;7.45;4.65;;;;;;;;;;1688030;84;21052;-70
2022/11/04 12:01:14;;;;;;;6.72;4.55;;;;;;;;;;1685454;84;21060;-70
2022/11/04 12:03:42;;;;;;;7.67;5.17;;;;;;;;;;1679994;84;21540;-70
2022/11/04 12:06:20;;;;;;;9.08;5.15;;;;;;;;;;1670546;85;21040;-70
2022/11/04 12:08:55;;;;;;;8.68;4.80;;;;;;;;;;1697315;84;21072;-69
2022/11/04 12:11:23;;;;;;;6.45;4.67;;;;;;;;;;1698886;84;21053;-69
2022/11/04 12:13:51;;;;;;;9.60;5.58;;;;;;;;;;1683235;84;21048;-69
2022/11/04 12:16:22;;;;;;;9.15;5.17;;;;;;;;;;1652136;86;21100;-69
2022/11/04 12:18:56;;;;;;;9.13;5.72;;;;;;;;;;1693418;83;21574;-69
2022/11/04 12:21:32;;;;;;;5.87;4.15;;;;;;;;;;1662342;84;21116;-68
2022/11/04 12:23:55;;;;;;;8.20;5.28;;;;;;;;;;1696522;83;21130;-69
2022/11/04 12:26:26;;;;;;;12.70;6.03;;;;;;;;;;1665187;86;21065;-68
2022/11/04 12:28:54;;;;;;;8.03;5.22;;;;;;;;;;1671615;85;21555;-69
2022/11/04 12:31:22;;;;;;;8.78;5.33;;;;;;;;;;1638239;87;21571;-69
2022/11/04 12:33:50;;;;;;;8.45;5.10;;;;;;;;;;1668510;85;21079;-68
2022/11/04 12:36:21;;;;;;;8.50;5.55;;;;;;;;;;1710764;84;21074;-69
2022/11/04 12:38:50;;;;;;;9.03;5.87;;;;;;;;;;1683812;84;21131;-69
2022/11/04 12:41:34;;;;;;;11.00;6.40;;;;;;;;;;1660366;86;21088;-70
2022/11/04 12:44:02;;;;;;;7.28;5.10;;;;;;;;;;1651240;86;21076;-68
2022/11/04 12:46:36;;;;;;;9.03;5.37;;;;;;;;;;1654584;86;21103;-69
2022/11/04 12:49:20;;;;;;;9.38;5.40;;;;;;;;;;1684795;85;21043;-69
2022/11/04 12:52:06;;;;;;;12.45;6.22;;;;;;;;;;1677605;85;21429;-69
2022/11/04 12:54:34;;;;;;;8.58;4.92;;;;;;;;;;1705507;83;21290;-68
2022/11/04 12:57:02;;;;;;;8.15;5.37;;;;;;;;;;1678604;85;21083;-70
2022/11/04 12:59:33;;;;;;;8.78;5.35;;;;;;;;;;1698023;84;21023;-69
2022/11/04 13:02:04;;;;;;;9.08;5.65;;;;;;;;;;1676931;85;21651;-68
2022/11/04 13:16:06;;;;;;;11.95;6.83;;;;;;;;;;1776170;80;28115;-72
2022/11/04 13:18:33;;;;;;;;;;;;;;;;;;1794907;80;21522;-74
2022/11/04 13:21:04;;;;;;;9.70;6.42;;;;;;;;;;1786858;80;20130;-73
2022/11/04 13:23:35;;;;;;;12.95;7.75;;;;;;;;;;1770808;80;21062;-73
2022/11/04 13:26:01;;;;;;;9.15;6.00;;;;;;;;;;1768897;80;21118;-74
2022/11/04 13:28:28;;;;;;;9.08;5.70;;;;;;;;;;1801487;78;21081;-74
2022/11/04 13:31:04;;;;;;;9.53;6.37;;;;;;;;;;1796657;80;21027;-73
2022/11/04 13:33:39;;;;;;;10.48;6.62;;;;;;;;;;1797490;78;21091;-73
2022/11/04 13:36:11;;;;;;;10.55;6.50;;;;;;;;;;1816013;77;21047;-73
2022/11/04 13:38:39;;;;;;;10.15;6.55;;;;;;;;;;1802930;77;21022;-73
2022/11/04 13:41:24;;;;;;;11.73;6.20;;;;;;;;;;1800620;78;21075;-72
2022/11/04 13:43:51;;;;;;;11.38;6.58;;;;;;;;;;1799015;78;21534;-72
2022/11/04 13:46:19;;;;;;;11.38;7.12;;;;;;;;;;1822081;77;21011;-73
2022/11/04 13:49:00;;;;;;;9.90;6.90;;;;;;;;;;1828507;78;21079;-74
2022/11/04 13:51:34;;;;;;;13.48;7.40;;;;;;;;;;1829806;77;21511;-74
2022/11/04 13:54:00;;;;;;;11.43;6.40;;;;;;;;;;1804595;77;20991;-73
2022/11/04 13:56:36;;;;;;;11.50;6.47;;;;;;;;;;1800274;78;21004;-73
2022/11/04 13:59:08;;;;;;;15.30;7.28;;;;;;;;;;1808410;77;21055;-73
2022/11/04 14:01:35;;;;;;;10.85;6.35;;;;;;;;;;1826055;78;21126;-72
2022/11/04 14:04:15;;;;;;;12.18;7.37;;;;;;;;;;1824950;78;21047;-74
2022/11/04 14:07:02;;;;;;;13.15;7.42;;;;;;;;;;1822844;78;21481;-76
2022/11/04 14:09:43;;;;;;;10.48;6.55;;;;;;;;;;1803913;78;21061;-75
2022/11/04 14:12:17;;;;;;;12.10;7.97;;;;;;;;;;1818618;78;21070;-73
2022/11/04 14:14:47;;;;;;;11.25;7.35;;;;;;;;;;1795560;78;21075;-75
2022/11/04 14:17:34;;;;;;;12.30;7.50;;;;;;;;;;1730698;81;21069;-73
2022/11/04 14:20:18;;;;;;;11.93;6.75;;;;;;;;;;1762383;81;21067;-72
2022/11/04 14:22:55;;;;;;;10.70;6.75;;;;;;;;;;1761946;80;21032;-73
2022/11/04 14:25:23;;;;;;;12.00;7.03;;;;;;;;;;1763294;80;21063;-73
2022/11/04 14:27:50;;;;;;;12.15;6.70;;;;;;;;;;1762083;80;21084;-74
2022/11/04 14:30:33;;;;;;;11.53;7.03;;;;;;;;;;1763294;81;21063;-74
2022/11/04 14:33:06;;;;;;;11.40;6.92;;;;;;;;;;1761933;81;21012;-72
2022/11/04 14:35:33;;;;;;;11.35;6.97;;;;;;;;;;1763586;80;21028;-73
2022/11/04 14:38:02;;;;;;;9.43;6.20;;;;;;;;;;1755211;80;20970;-73
2022/11/04 14:40:30;;;;;;;10.43;6.28;;;;;;;;;;1746083;82;21069;-71
2022/11/04 14:42:57;;;;;;;10.48;6.47;;;;;;;;;;1755485;80;21032;-73
2022/11/04 14:45:24;;;;;;;6.83;4.75;;;;;;;;;;1761520;80;21061;-72
2022/11/04 14:47:52;;;;;;;10.43;5.97;;;;;;;;;;1764009;81;21039;-72
2022/11/04 14:50:20;;;;;;;7.70;5.30;;;;;;;;;;1764057;81;21000;-73
2022/11/04 14:52:48;;;;;;;8.20;5.50;;;;;;;;;;1765000;80;21615;-74
2022/11/04 14:55:21;;;;;;;11.55;6.33;;;;;;;;;;1761944;80;21005;-73
2022/11/04 14:57:51;;;;;;;10.55;6.12;;;;;;;;;;1751249;80;21031;-74
2022/11/04 15:00:31;;;;;;;13.18;6.40;;;;;;;;;;1756244;80;20982;-75
2022/11/04 15:03:02;;;;;;;13.22;7.62;;;;;;;;;;1761149;80;21597;-76
2022/11/04 15:05:32;;;;;;;16.15;9.53;;;;;;;;;;1743072;81;21060;-75
2022/11/04 15:07:57;;;;;;;11.30;6.80;;;;;;;;;;1760839;81;21024;-75
2022/11/04 15:10:24;;;;;;;8.88;5.55;;;;;;;;;;1762517;80;21026;-75
2022/11/04 15:12:51;;;;;;;10.20;6.30;;;;;;;;;;1753814;80;21013;-74
2022/11/04 15:15:20;;;;;;;10.53;5.03;;;;;;;;;;1776306;79;21044;-74
2022/11/04 15:17:51;;;;;;;8.58;5.80;;;;;;;;;;1786724;79;21596;-75
2022/11/04 15:20:24;;;;;;;9.05;5.65;;;;;;;;;;1783756;79;21099;-75
2022/11/04 15:22:51;;;;;;;11.22;6.47;;;;;;;;;;1788837;79;21055;-73
2022/11/04 15:25:19;;;;;;;9.65;5.90;;;;;;;;;;1788708;79;21064;-74
2022/11/04 15:27:48;;;;;;;11.95;7.08;;;;;;;;;;1787503;79;21059;-74
2022/11/04 15:30:19;;;;;;;23.50;10.70;;;;;;;;;;1779762;79;21035;-75
2022/11/04 15:33:00;;;;;;;15.40;8.70;;;;;;;;;;1783976;80;21082;-75
2022/11/04 15:35:27;;;;;;;15.80;8.35;;;;;;;;;;1765610;80;21382;-74
2022/11/04 15:37:53;;;;;;;17.25;8.53;;;;;;;;;;1789687;79;21012;-76
2022/11/04 15:40:20;;;;;;;20.20;10.48;;;;;;;;;;1790518;79;21047;-76
2022/11/04 15:42:46;;;;;;;16.52;9.50;;;;;;;;;;1786830;79;21094;-73
2022/11/04 15:45:16;;;;;;;16.20;9.80;;;;;;;;;;1791209;79;21010;-74
2022/11/04 15:47:44;;;;;;;18.23;9.45;;;;;;;;;;1777034;80;21009;-75
2022/11/04 15:50:23;;;;;;;19.90;10.43;;;;;;;;;;1786101;80;21052;-74
2022/11/04 15:52:51;;;;;;;14.40;9.58;;;;;;;;;;1779137;80;21031;-73
2022/11/04 15:55:24;;;;;;;15.50;8.48;;;;;;;;;;1774587;79;20973;-74
2022/11/04 15:57:50;;;;;;;14.30;8.03;;;;;;;;;;1772539;79;21099;-75
2022/11/04 16:00:21;;;;;;;13.03;8.25;;;;;;;;;;1787440;79;21032;-68
2022/11/04 16:02:52;;;;;;;12.37;7.87;;;;;;;;;;1789522;80;21035;-73
2022/11/04 16:05:20;;;;;;;14.10;9.50;;;;;;;;;;1773824;79;21046;-72
2022/11/04 16:07:47;;;;;;;16.87;9.48;;;;;;;;;;1751402;79;21079;-72
2022/11/04 16:10:33;;;;;;;14.83;8.05;;;;;;;;;;1772378;79;21066;-73
2022/11/04 16:12:59;;;;;;;15.15;9.15;;;;;;;;;;1770185;79;21007;-73